Time;durP1;ratioP1;P1;durP2;ratioP2;P2;SDS_P1;SDS_P2;PMS_P1;PMS_P2;Temp;Humidity;BMP_temperature;BMP_pressure;BME280_temperature;BME280_humidity;BME280_pressure;Samples;Min_cycle;Max_cycle;Signal;HPM_P1;HPM_P2
2022/05/22 00:02:26;;;;;;;37.47;17.30;;;;;;;;;;5131472;27;20089;-60
2022/05/22 00:04:52;;;;;;;42.03;18.80;;;;;;;;;;5131382;28;20061;-60
2022/05/22 00:07:20;;;;;;;40.65;17.25;;;;;;;;;;5131951;27;20119;-60
2022/05/22 00:09:46;;;;;;;50.85;18.08;;;;;;;;;;5131058;27;20118;-60
2022/05/22 00:12:13;;;;;;;38.53;17.92;;;;;;;;;;5132764;27;20039;-60
2022/05/22 00:14:39;;;;;;;39.45;16.92;;;;;;;;;;5131200;28;20039;-60
2022/05/22 00:17:08;;;;;;;36.92;15.30;;;;;;;;;;5131167;27;20366;-60
2022/05/22 00:19:35;;;;;;;31.50;14.93;;;;;;;;;;5131479;27;20087;-60
2022/05/22 00:22:02;;;;;;;43.28;16.60;;;;;;;;;;5131329;27;20039;-60
2022/05/22 00:24:30;;;;;;;45.45;16.50;;;;;;;;;;5131548;27;20071;-60
2022/05/22 00:26:57;;;;;;;30.48;15.73;;;;;;;;;;5131947;27;20507;-60
2022/05/22 00:29:28;;;;;;;42.55;15.25;;;;;;;;;;5129732;28;20130;-60
2022/05/22 00:31:54;;;;;;;37.47;14.40;;;;;;;;;;5130882;28;20409;-60
2022/05/22 00:34:21;;;;;;;27.55;15.10;;;;;;;;;;5131324;28;20042;-60
2022/05/22 00:36:48;;;;;;;46.08;17.05;;;;;;;;;;5131503;28;20047;-59
2022/05/22 00:39:15;;;;;;;46.63;17.90;;;;;;;;;;5131947;27;20389;-60
2022/05/22 00:41:46;;;;;;;36.05;17.20;;;;;;;;;;5130040;28;20096;-60
2022/05/22 00:44:13;;;;;;;45.00;13.45;;;;;;;;;;5129701;28;20075;-60
2022/05/22 00:46:39;;;;;;;62.65;19.73;;;;;;;;;;5130343;27;20049;-60
2022/05/22 00:49:17;;;;;;;39.42;16.67;;;;;;;;;;5131302;28;20395;-59
2022/05/22 00:51:51;;;;;;;39.97;15.05;;;;;;;;;;5132976;27;20442;-59
2022/05/22 00:54:27;;;;;;;36.53;14.10;;;;;;;;;;5134192;27;20054;-60
2022/05/22 00:56:58;;;;;;;38.42;11.65;;;;;;;;;;5135338;27;20605;-60
2022/05/22 00:59:26;;;;;;;39.35;15.95;;;;;;;;;;5133304;27;20039;-60
2022/05/22 01:01:54;;;;;;;32.95;14.20;;;;;;;;;;5134096;27;20099;-60
2022/05/22 01:04:22;;;;;;;24.05;12.10;;;;;;;;;;5134784;27;20037;-59
2022/05/22 01:06:51;;;;;;;37.83;14.95;;;;;;;;;;5134771;27;20096;-60
2022/05/22 01:09:18;;;;;;;29.88;13.10;;;;;;;;;;5135490;27;20039;-59
2022/05/22 01:11:45;;;;;;;31.73;10.57;;;;;;;;;;5134692;27;20047;-60
2022/05/22 01:14:14;;;;;;;22.17;10.32;;;;;;;;;;5133540;27;20071;-59
2022/05/22 01:16:41;;;;;;;30.67;10.77;;;;;;;;;;5133607;27;20039;-60
2022/05/22 01:19:15;;;;;;;32.05;11.98;;;;;;;;;;5133473;27;20043;-60
2022/05/22 01:21:57;;;;;;;30.75;11.35;;;;;;;;;;5133127;27;20098;-59
2022/05/22 01:24:24;;;;;;;32.40;12.25;;;;;;;;;;5133653;27;20396;-60
2022/05/22 01:26:52;;;;;;;23.33;10.35;;;;;;;;;;5133371;27;20134;-59
2022/05/22 01:29:27;;;;;;;28.70;10.07;;;;;;;;;;5132854;27;20054;-60
2022/05/22 01:31:54;;;;;;;23.98;10.65;;;;;;;;;;5132195;27;20129;-59
2022/05/22 01:34:20;;;;;;;23.83;10.13;;;;;;;;;;5132566;27;20051;-60
2022/05/22 01:36:47;;;;;;;39.97;11.95;;;;;;;;;;5132607;27;20086;-59
2022/05/22 01:39:14;;;;;;;28.63;10.70;;;;;;;;;;5133604;27;20133;-59
2022/05/22 01:41:48;;;;;;;20.75;10.00;;;;;;;;;;5124771;27;20053;-60
2022/05/22 01:44:15;;;;;;;27.48;10.00;;;;;;;;;;5128107;27;20047;-60
2022/05/22 01:46:43;;;;;;;21.77;10.15;;;;;;;;;;5132265;27;20162;-60
2022/05/22 01:49:10;;;;;;;25.45;10.75;;;;;;;;;;5132543;27;20086;-60
2022/05/22 01:51:39;;;;;;;41.05;12.80;;;;;;;;;;5120284;27;20652;-60
2022/05/22 01:54:05;;;;;;;20.77;9.63;;;;;;;;;;5133002;27;20047;-60
2022/05/22 01:56:34;;;;;;;28.45;10.20;;;;;;;;;;5133529;27;20504;-60
2022/05/22 01:59:03;;;;;;;41.42;11.35;;;;;;;;;;5132509;27;20054;-60
2022/05/22 02:01:34;;;;;;;23.50;10.40;;;;;;;;;;5131905;27;20043;-60
2022/05/22 02:04:06;;;;;;;32.95;11.40;;;;;;;;;;5133310;27;20035;-60
2022/05/22 02:06:34;;;;;;;33.08;11.88;;;;;;;;;;5133568;27;20469;-60
2022/05/22 02:09:08;;;;;;;30.80;11.73;;;;;;;;;;5133017;27;20055;-59
2022/05/22 02:11:40;;;;;;;25.30;10.63;;;;;;;;;;5131999;27;20047;-59
2022/05/22 02:14:07;;;;;;;24.48;11.55;;;;;;;;;;5131595;27;20061;-60
2022/05/22 02:16:33;;;;;;;50.60;15.18;;;;;;;;;;5131448;27;20047;-59
2022/05/22 02:19:00;;;;;;;48.42;14.80;;;;;;;;;;5133321;27;20039;-60
2022/05/22 02:21:29;;;;;;;47.35;15.50;;;;;;;;;;5132321;27;20719;-60
2022/05/22 02:23:55;;;;;;;36.22;14.18;;;;;;;;;;5132168;27;20082;-59
2022/05/22 02:26:22;;;;;;;36.03;15.77;;;;;;;;;;5131770;27;20050;-60
2022/05/22 02:28:48;;;;;;;34.10;15.27;;;;;;;;;;5131236;27;20067;-60
2022/05/22 02:31:15;;;;;;;35.97;15.77;;;;;;;;;;5131827;27;20045;-59
2022/05/22 02:33:50;;;;;;;37.85;16.60;;;;;;;;;;5131801;27;20050;-60
2022/05/22 02:36:17;;;;;;;31.20;14.93;;;;;;;;;;5134029;27;20412;-60
2022/05/22 02:38:48;;;;;;;39.92;15.23;;;;;;;;;;5131602;27;20045;-59
2022/05/22 02:41:17;;;;;;;32.53;15.15;;;;;;;;;;5127599;27;20506;-60
2022/05/22 02:43:50;;;;;;;28.98;13.25;;;;;;;;;;5123117;27;20039;-60
2022/05/22 02:46:17;;;;;;;32.58;13.98;;;;;;;;;;5132153;27;20032;-60
2022/05/22 02:48:44;;;;;;;30.00;12.77;;;;;;;;;;5132611;27;20039;-60
2022/05/22 02:51:12;;;;;;;42.25;14.43;;;;;;;;;;5121191;27;20053;-60
2022/05/22 02:53:38;;;;;;;35.30;14.00;;;;;;;;;;5130052;27;20176;-60
2022/05/22 02:56:15;;;;;;;29.02;13.30;;;;;;;;;;5132579;27;20523;-59
2022/05/22 02:59:02;;;;;;;36.58;14.20;;;;;;;;;;5053067;28;20509;-60
2022/05/22 03:01:37;;;;;;;26.83;13.02;;;;;;;;;;5057193;28;20040;-59
2022/05/22 03:04:04;;;;;;;39.50;13.35;;;;;;;;;;5051916;28;20033;-59
2022/05/22 03:06:39;;;;;;;38.25;12.98;;;;;;;;;;5069076;28;20094;-59
2022/05/22 03:09:08;;;;;;;49.88;15.15;;;;;;;;;;5050914;28;20093;-59
2022/05/22 03:11:36;;;;;;;30.48;12.43;;;;;;;;;;5053371;28;20083;-60
2022/05/22 03:14:03;;;;;;;30.58;13.27;;;;;;;;;;5035867;28;20040;-59
2022/05/22 03:16:30;;;;;;;50.58;15.45;;;;;;;;;;5054675;28;20458;-59
2022/05/22 03:19:17;;;;;;;30.35;12.10;;;;;;;;;;5055509;28;20153;-60
2022/05/22 03:21:44;;;;;;;37.08;13.65;;;;;;;;;;5051629;28;20180;-59
2022/05/22 03:24:11;;;;;;;44.60;14.38;;;;;;;;;;5033842;28;20044;-59
2022/05/22 03:26:45;;;;;;;27.92;12.85;;;;;;;;;;5053028;28;20047;-59
2022/05/22 03:29:12;;;;;;;35.53;13.35;;;;;;;;;;5052840;28;20124;-59
2022/05/22 03:31:39;;;;;;;26.85;11.35;;;;;;;;;;5052633;28;20411;-60
2022/05/22 03:34:06;;;;;;;27.58;12.23;;;;;;;;;;5054929;28;20036;-60
2022/05/22 03:36:39;;;;;;;38.72;11.73;;;;;;;;;;5107109;27;20047;-59
2022/05/22 03:39:07;;;;;;;24.17;9.65;;;;;;;;;;5127199;27;20039;-60
2022/05/22 03:41:34;;;;;;;25.38;11.25;;;;;;;;;;5128539;27;20142;-60
2022/05/22 03:44:01;;;;;;;25.83;10.65;;;;;;;;;;5130476;27;20044;-59
2022/05/22 03:46:34;;;;;;;21.83;9.77;;;;;;;;;;5130056;28;20043;-60
2022/05/22 03:49:01;;;;;;;23.95;9.57;;;;;;;;;;5130206;28;20051;-59
2022/05/22 03:51:35;;;;;;;22.88;9.95;;;;;;;;;;5130711;28;20057;-60
2022/05/22 03:54:01;;;;;;;22.48;10.30;;;;;;;;;;5119981;28;20134;-60
2022/05/22 03:56:35;;;;;;;32.40;10.52;;;;;;;;;;5127989;28;20055;-59
2022/05/22 03:59:03;;;;;;;25.83;10.90;;;;;;;;;;5130253;28;20077;-59
2022/05/22 04:01:29;;;;;;;21.38;8.93;;;;;;;;;;5130099;28;20131;-60
2022/05/22 04:03:59;;;;;;;22.45;9.00;;;;;;;;;;5130439;28;20043;-60
2022/05/22 04:06:25;;;;;;;17.05;7.18;;;;;;;;;;5130525;28;20039;-59
2022/05/22 04:08:53;;;;;;;22.52;9.30;;;;;;;;;;5130883;28;20050;-60
2022/05/22 04:11:29;;;;;;;29.77;11.30;;;;;;;;;;5130092;28;20043;-60
2022/05/22 04:14:02;;;;;;;29.13;9.88;;;;;;;;;;5130095;28;20050;-60
2022/05/22 04:16:29;;;;;;;35.13;9.93;;;;;;;;;;5129992;28;20040;-59
2022/05/22 04:18:56;;;;;;;15.10;8.43;;;;;;;;;;5130466;28;20068;-59
2022/05/22 04:21:22;;;;;;;19.98;8.77;;;;;;;;;;5132456;27;20039;-59
2022/05/22 04:26:38;;;;;;;25.10;8.35;;;;;;;;;;5134618;27;20035;-59
2022/05/22 04:29:09;;;;;;;25.73;9.18;;;;;;;;;;5133760;27;20047;-60
2022/05/22 04:31:35;;;;;;;30.15;8.82;;;;;;;;;;5133785;27;20035;-60
2022/05/22 04:34:28;;;;;;;24.63;8.90;;;;;;;;;;5132052;27;20046;-60
2022/05/22 04:37:06;;;;;;;31.27;8.45;;;;;;;;;;5134012;27;20130;-60
2022/05/22 04:39:54;;;;;;;19.30;8.63;;;;;;;;;;5124506;27;20492;-60
2022/05/22 04:42:21;;;;;;;16.60;7.53;;;;;;;;;;5134762;27;20058;-59
2022/05/22 04:44:48;;;;;;;36.92;10.00;;;;;;;;;;5133369;27;20043;-59
2022/05/22 04:47:27;;;;;;;15.75;7.65;;;;;;;;;;5133808;27;20134;-59
2022/05/22 04:50:13;;;;;;;32.40;9.52;;;;;;;;;;5127658;27;20193;-60
2022/05/22 04:52:59;;;;;;;25.60;7.90;;;;;;;;;;5127316;27;20585;-59
2022/05/22 04:55:27;;;;;;;41.83;10.13;;;;;;;;;;5126416;27;20039;-59
2022/05/22 04:57:54;;;;;;;21.70;7.35;;;;;;;;;;5123839;27;20043;-59
2022/05/22 05:00:21;;;;;;;14.02;7.25;;;;;;;;;;5122036;27;20082;-60
2022/05/22 05:03:01;;;;;;;18.08;7.47;;;;;;;;;;5134000;27;20050;-59
2022/05/22 05:05:28;;;;;;;17.38;6.68;;;;;;;;;;5133238;27;20116;-60
2022/05/22 05:07:55;;;;;;;22.20;6.78;;;;;;;;;;5132810;27;20142;-59
2022/05/22 05:10:38;;;;;;;;;;;;;;;;;;5133718;27;20057;-59
2022/05/22 05:13:20;;;;;;;20.80;7.30;;;;;;;;;;5133319;27;19919;-59
2022/05/22 05:16:01;;;;;;;30.77;7.55;;;;;;;;;;5133063;27;20047;-60
2022/05/22 05:18:33;;;;;;;37.53;8.18;;;;;;;;;;5133240;27;20043;-59
2022/05/22 05:21:02;;;;;;;15.48;5.72;;;;;;;;;;5122890;27;20042;-59
2022/05/22 05:23:29;;;;;;;17.58;6.32;;;;;;;;;;5129817;27;20465;-60
2022/05/22 05:26:06;;;;;;;26.00;7.10;;;;;;;;;;5132679;27;20162;-60
2022/05/22 05:28:33;;;;;;;26.48;6.82;;;;;;;;;;5132951;27;20047;-60
2022/05/22 05:31:00;;;;;;;13.70;5.50;;;;;;;;;;5132407;27;20054;-60
2022/05/22 05:33:27;;;;;;;16.25;5.15;;;;;;;;;;5133170;27;20042;-60
2022/05/22 05:36:14;;;;;;;14.18;5.82;;;;;;;;;;5059492;28;20052;-59
2022/05/22 05:38:59;;;;;;;18.00;5.93;;;;;;;;;;5070329;28;20051;-60
2022/05/22 05:41:58;;;;;;;14.80;6.38;;;;;;;;;;5045303;28;20172;-60
2022/05/22 05:44:32;;;;;;;14.38;4.97;;;;;;;;;;5060816;28;20203;-60
2022/05/22 05:47:08;;;;;;;24.45;5.60;;;;;;;;;;5049642;28;20099;-60
2022/05/22 05:49:56;;;;;;;14.05;5.07;;;;;;;;;;5048948;28;20056;-60
2022/05/22 05:52:52;;;;;;;15.32;4.15;;;;;;;;;;5060305;28;20049;-60
2022/05/22 05:55:37;;;;;;;14.38;3.60;;;;;;;;;;5069506;28;20106;-59
2022/05/22 05:58:40;;;;;;;16.67;4.20;;;;;;;;;;5048176;28;20040;-60
2022/05/22 06:01:15;;;;;;;20.13;3.45;;;;;;;;;;5047293;28;20132;-60
2022/05/22 06:03:42;;;;;;;28.02;4.35;;;;;;;;;;5070023;28;20044;-60
2022/05/22 06:06:10;;;;;;;21.70;3.78;;;;;;;;;;5050442;28;20071;-60
2022/05/22 06:08:37;;;;;;;28.70;4.95;;;;;;;;;;5047583;28;20040;-60
2022/05/22 06:11:22;;;;;;;14.30;2.80;;;;;;;;;;5068110;28;20056;-60
2022/05/22 06:13:53;;;;;;;29.08;4.22;;;;;;;;;;5101596;27;20049;-61
2022/05/22 06:16:20;;;;;;;23.60;3.53;;;;;;;;;;5130587;27;20062;-61
2022/05/22 06:18:55;;;;;;;9.50;2.28;;;;;;;;;;5116142;27;20035;-60
2022/05/22 06:21:22;;;;;;;4.13;1.48;;;;;;;;;;5132683;27;20053;-61
2022/05/22 06:23:49;;;;;;;19.67;2.88;;;;;;;;;;5131396;27;20042;-61
2022/05/22 06:26:51;;;;;;;16.38;2.75;;;;;;;;;;5122597;27;20054;-61
2022/05/22 06:29:47;;;;;;;9.02;1.98;;;;;;;;;;5028859;28;20042;-61
2022/05/22 06:32:29;;;;;;;12.75;2.67;;;;;;;;;;5012496;28;20041;-60
2022/05/22 06:35:27;;;;;;;13.45;2.45;;;;;;;;;;5006654;28;20107;-60
2022/05/22 06:41:24;;;;;;;5.85;1.75;;;;;;;;;;5013338;28;20045;-61
2022/05/22 06:44:20;;;;;;;21.58;2.92;;;;;;;;;;5004527;28;20526;-61
2022/05/22 06:47:05;;;;;;;17.35;2.38;;;;;;;;;;5029470;28;20060;-61
2022/05/22 06:50:03;;;;;;;15.07;2.33;;;;;;;;;;5012312;28;20127;-61
2022/05/22 06:52:41;;;;;;;12.15;2.00;;;;;;;;;;5012700;28;20412;-60
2022/05/22 06:55:30;;;;;;;6.15;1.95;;;;;;;;;;5002219;28;20050;-61
2022/05/22 06:58:19;;;;;;;24.35;3.05;;;;;;;;;;5008597;28;20507;-61
2022/05/22 07:01:04;;;;;;;20.42;2.83;;;;;;;;;;5014960;28;20080;-61
2022/05/22 07:03:54;;;;;;;10.90;1.95;;;;;;;;;;4970681;28;20047;-61
2022/05/22 07:06:38;;;;;;;17.70;2.72;;;;;;;;;;5020217;28;20065;-62
2022/05/22 07:09:28;;;;;;;19.92;3.03;;;;;;;;;;5046631;28;20049;-62
2022/05/22 07:11:59;;;;;;;14.77;2.60;;;;;;;;;;5049748;28;20064;-62
2022/05/22 07:14:44;;;;;;;5.03;1.40;;;;;;;;;;5049013;28;20445;-61
2022/05/22 07:17:23;;;;;;;12.45;2.22;;;;;;;;;;5048825;28;20187;-61
2022/05/22 07:20:22;;;;;;;13.25;2.17;;;;;;;;;;5031908;28;20052;-61
2022/05/22 07:23:08;;;;;;;10.30;2.10;;;;;;;;;;5032164;28;20219;-61
2022/05/22 07:25:53;;;;;;;9.50;1.73;;;;;;;;;;5049196;28;20604;-62
2022/05/22 07:28:40;;;;;;;7.30;1.63;;;;;;;;;;4989235;28;20531;-62
2022/05/22 07:31:21;;;;;;;3.05;1.33;;;;;;;;;;4973153;28;20042;-61
2022/05/22 07:34:06;;;;;;;13.55;2.22;;;;;;;;;;4995337;28;20218;-62
2022/05/22 07:36:32;;;;;;;21.25;3.28;;;;;;;;;;4989668;28;20046;-61
2022/05/22 07:39:34;;;;;;;15.75;2.38;;;;;;;;;;4973494;28;20050;-61
2022/05/22 07:42:20;;;;;;;6.38;1.50;;;;;;;;;;5027420;28;20045;-61
2022/05/22 07:45:07;;;;;;;16.88;2.78;;;;;;;;;;5046449;28;20068;-61
2022/05/22 07:48:05;;;;;;;5.75;1.35;;;;;;;;;;4989350;28;20053;-62
2022/05/22 07:50:43;;;;;;;12.75;2.10;;;;;;;;;;4969123;28;20133;-61
2022/05/22 07:53:44;;;;;;;5.15;1.40;;;;;;;;;;4988911;28;20050;-61
2022/05/22 07:56:30;;;;;;;10.15;1.90;;;;;;;;;;4989152;28;20058;-61
2022/05/22 07:59:15;;;;;;;10.98;2.13;;;;;;;;;;4990120;28;20064;-61
2022/05/22 08:01:54;;;;;;;12.10;2.08;;;;;;;;;;4992889;28;20065;-61
2022/05/22 08:04:35;;;;;;;21.45;2.97;;;;;;;;;;4993069;28;20042;-61
2022/05/22 08:07:19;;;;;;;8.88;1.83;;;;;;;;;;5072628;28;20129;-61
2022/05/22 08:10:07;;;;;;;14.43;2.47;;;;;;;;;;4992943;28;20056;-61
2022/05/22 08:12:38;;;;;;;16.20;3.08;;;;;;;;;;4993269;28;20487;-62
2022/05/22 08:15:12;;;;;;;14.63;2.28;;;;;;;;;;4991849;28;20417;-61
2022/05/22 08:17:39;;;;;;;8.50;1.67;;;;;;;;;;4992543;28;20419;-60
2022/05/22 08:20:12;;;;;;;12.23;2.22;;;;;;;;;;4993130;28;20389;-60
2022/05/22 08:22:51;;;;;;;8.23;2.22;;;;;;;;;;4997024;28;20057;-60
2022/05/22 08:25:23;;;;;;;3.42;1.35;;;;;;;;;;5023348;28;20044;-61
2022/05/22 08:27:51;;;;;;;17.77;2.40;;;;;;;;;;5035708;28;20040;-61
2022/05/22 08:30:19;;;;;;;13.50;2.22;;;;;;;;;;5052321;28;20099;-61
2022/05/22 08:32:46;;;;;;;6.93;1.50;;;;;;;;;;5034207;28;20061;-60
2022/05/22 08:35:16;;;;;;;15.70;2.25;;;;;;;;;;5046515;28;20840;-60
2022/05/22 08:37:42;;;;;;;20.13;3.03;;;;;;;;;;5051763;28;20128;-60
2022/05/22 08:40:12;;;;;;;17.67;2.63;;;;;;;;;;5052068;28;20493;-60
2022/05/22 08:42:43;;;;;;;14.55;2.35;;;;;;;;;;5051781;28;20045;-60
2022/05/22 08:45:18;;;;;;;19.40;2.70;;;;;;;;;;5052002;28;20821;-60
2022/05/22 08:47:45;;;;;;;13.95;2.60;;;;;;;;;;5105914;27;20539;-60
2022/05/22 08:50:12;;;;;;;10.20;2.08;;;;;;;;;;5135169;27;20043;-60
2022/05/22 08:52:42;;;;;;;14.82;2.15;;;;;;;;;;5134906;27;20420;-60
2022/05/22 08:55:12;;;;;;;15.70;3.47;;;;;;;;;;5120449;27;20058;-60
2022/05/22 09:00:47;;;;;;;15.20;2.30;;;;;;;;;;5134358;27;20039;-60
2022/05/22 09:03:18;;;;;;;12.05;2.22;;;;;;;;;;5135766;27;20050;-61
2022/05/22 09:05:47;;;;;;;22.98;3.30;;;;;;;;;;5134915;27;20501;-60
2022/05/22 09:08:29;;;;;;;10.93;2.40;;;;;;;;;;5135008;27;20046;-61
2022/05/22 09:11:16;;;;;;;13.15;2.72;;;;;;;;;;5132494;27;20472;-61
2022/05/22 09:13:58;;;;;;;8.73;1.85;;;;;;;;;;5134692;27;20091;-61
2022/05/22 09:16:30;;;;;;;4.32;1.25;;;;;;;;;;5133165;27;20651;-61
2022/05/22 09:19:02;;;;;;;8.90;1.63;;;;;;;;;;5134660;27;20035;-61
2022/05/22 09:21:54;;;;;;;17.35;2.70;;;;;;;;;;5135191;27;20067;-60
2022/05/22 09:24:34;;;;;;;12.07;2.00;;;;;;;;;;5135227;27;20039;-61
2022/05/22 09:27:09;;;;;;;7.72;1.60;;;;;;;;;;5134242;27;20090;-61
2022/05/22 09:29:50;;;;;;;17.55;2.78;;;;;;;;;;5127101;27;20070;-60
2022/05/22 09:32:34;;;;;;;20.77;2.08;;;;;;;;;;5128861;27;20411;-61
2022/05/22 09:35:13;;;;;;;39.00;5.13;;;;;;;;;;5134003;27;20519;-60
2022/05/22 09:37:55;;;;;;;9.25;2.65;;;;;;;;;;5134204;27;20039;-60
2022/05/22 09:40:31;;;;;;;14.88;2.40;;;;;;;;;;5120910;27;20031;-60
2022/05/22 09:43:00;;;;;;;28.98;3.88;;;;;;;;;;5133786;27;20046;-60
2022/05/22 09:45:47;;;;;;;13.93;2.75;;;;;;;;;;5134149;27;20088;-60
2022/05/22 09:48:17;;;;;;;19.55;3.60;;;;;;;;;;5132959;27;20067;-61
2022/05/22 09:50:45;;;;;;;17.23;3.17;;;;;;;;;;5133560;27;20056;-60
2022/05/22 09:53:30;;;;;;;8.52;1.98;;;;;;;;;;5131741;27;20378;-60
2022/05/22 09:56:02;;;;;;;13.82;2.08;;;;;;;;;;5132549;27;20500;-60
2022/05/22 09:58:29;;;;;;;8.82;2.00;;;;;;;;;;5133469;27;20031;-60
2022/05/22 10:01:18;;;;;;;14.75;2.35;;;;;;;;;;5133309;27;20846;-60
2022/05/22 10:03:49;;;;;;;29.83;3.60;;;;;;;;;;5133289;27;20042;-60
2022/05/22 10:06:31;;;;;;;16.70;2.72;;;;;;;;;;5134319;27;20043;-60
2022/05/22 10:08:57;;;;;;;12.18;1.95;;;;;;;;;;5133859;27;20043;-60
2022/05/22 10:11:34;;;;;;;9.10;2.08;;;;;;;;;;5133337;27;20122;-60
2022/05/22 10:14:18;;;;;;;19.67;2.80;;;;;;;;;;5127144;27;20058;-60
2022/05/22 10:16:55;;;;;;;15.55;2.85;;;;;;;;;;5126136;27;20119;-59
2022/05/22 10:19:24;;;;;;;15.38;3.35;;;;;;;;;;5125060;27;20039;-60
2022/05/22 10:22:14;;;;;;;16.25;2.58;;;;;;;;;;5123623;27;20472;-60
2022/05/22 10:24:55;;;;;;;27.75;3.38;;;;;;;;;;5123160;27;20555;-60
2022/05/22 10:27:33;;;;;;;10.65;1.90;;;;;;;;;;5129451;27;20043;-61
2022/05/22 10:30:02;;;;;;;21.45;3.47;;;;;;;;;;5123750;27;20036;-61
2022/05/22 10:32:28;;;;;;;19.70;2.75;;;;;;;;;;5129451;27;20075;-60
2022/05/22 10:35:02;;;;;;;16.33;2.70;;;;;;;;;;5132544;27;20108;-60
2022/05/22 10:37:39;;;;;;;25.60;4.55;;;;;;;;;;5132896;27;20032;-60
2022/05/22 10:40:07;;;;;;;18.25;2.83;;;;;;;;;;5119888;27;20039;-60
2022/05/22 10:42:48;;;;;;;22.30;3.53;;;;;;;;;;5132362;27;20145;-59
2022/05/22 10:45:18;;;;;;;9.77;2.13;;;;;;;;;;5133227;27;20039;-60
2022/05/22 10:47:44;;;;;;;16.58;2.38;;;;;;;;;;5132769;27;20040;-60
2022/05/22 10:50:17;;;;;;;8.02;2.10;;;;;;;;;;5133021;27;20150;-60
2022/05/22 10:52:44;;;;;;;19.95;3.15;;;;;;;;;;5131810;27;20409;-60
2022/05/22 10:55:20;;;;;;;11.98;2.45;;;;;;;;;;5132486;27;20496;-60
2022/05/22 10:57:56;;;;;;;23.85;2.83;;;;;;;;;;5132418;27;20039;-60
2022/05/22 11:00:24;;;;;;;9.25;2.10;;;;;;;;;;5133016;27;20043;-60
2022/05/22 11:02:51;;;;;;;12.18;2.25;;;;;;;;;;5132422;27;20134;-61
2022/05/22 11:05:24;;;;;;;14.82;2.50;;;;;;;;;;5132546;27;20043;-60
2022/05/22 11:07:51;;;;;;;9.90;2.35;;;;;;;;;;5132311;27;20045;-61
2022/05/22 11:10:37;;;;;;;17.23;3.85;;;;;;;;;;5132081;27;20039;-61
2022/05/22 11:13:08;;;;;;;16.98;2.65;;;;;;;;;;5132296;27;20043;-60
2022/05/22 11:15:39;;;;;;;16.02;2.83;;;;;;;;;;5132093;27;20074;-60
2022/05/22 11:18:08;;;;;;;20.92;3.22;;;;;;;;;;5132733;27;20035;-60
2022/05/22 11:20:34;;;;;;;9.95;1.92;;;;;;;;;;5132065;27;20054;-60
2022/05/22 11:23:10;;;;;;;11.80;2.17;;;;;;;;;;5131872;27;20060;-60
2022/05/22 11:25:49;;;;;;;13.02;2.47;;;;;;;;;;5131687;27;20496;-60
2022/05/22 11:28:26;;;;;;;18.50;2.95;;;;;;;;;;5125190;27;20063;-60
2022/05/22 11:31:08;;;;;;;21.48;2.75;;;;;;;;;;5131904;27;20035;-61
2022/05/22 11:33:45;;;;;;;19.45;3.03;;;;;;;;;;5131913;27;20092;-60
2022/05/22 11:36:30;;;;;;;13.68;2.55;;;;;;;;;;5128728;27;20075;-60
2022/05/22 11:39:24;;;;;;;23.73;3.35;;;;;;;;;;5129004;27;20617;-60
2022/05/22 11:41:55;;;;;;;28.00;3.65;;;;;;;;;;5129864;27;20059;-60
2022/05/22 11:44:24;;;;;;;26.90;4.53;;;;;;;;;;5129431;27;20130;-60
2022/05/22 11:47:02;;;;;;;19.05;2.95;;;;;;;;;;5129629;27;20039;-60
2022/05/22 11:49:29;;;;;;;15.45;2.83;;;;;;;;;;5131243;27;20118;-60
2022/05/22 11:55:07;;;;;;;9.23;1.88;;;;;;;;;;5116436;28;20035;-60
2022/05/22 11:57:39;;;;;;;18.10;2.95;;;;;;;;;;5131779;28;20130;-60
2022/05/22 12:00:08;;;;;;;23.33;3.25;;;;;;;;;;5131692;28;20092;-60
2022/05/22 12:02:56;;;;;;;28.77;4.03;;;;;;;;;;5131495;27;20050;-60
2022/05/22 12:05:32;;;;;;;23.13;3.50;;;;;;;;;;5131169;28;20430;-60
2022/05/22 12:08:01;;;;;;;23.33;3.63;;;;;;;;;;5131223;27;20118;-59
2022/05/22 12:10:35;;;;;;;19.75;2.95;;;;;;;;;;5130811;28;20073;-60
2022/05/22 12:13:09;;;;;;;7.30;1.80;;;;;;;;;;5130838;27;20481;-61
2022/05/22 12:15:42;;;;;;;21.95;2.97;;;;;;;;;;5131689;27;20770;-61
2022/05/22 12:18:12;;;;;;;9.80;1.52;;;;;;;;;;5132065;28;20035;-60
2022/05/22 12:20:47;;;;;;;24.25;3.33;;;;;;;;;;5131010;28;20071;-60
2022/05/22 12:23:16;;;;;;;12.60;2.03;;;;;;;;;;5131090;27;20106;-61
2022/05/22 12:25:54;;;;;;;10.30;2.08;;;;;;;;;;5131104;28;20043;-60
2022/05/22 12:28:28;;;;;;;12.75;2.60;;;;;;;;;;5131087;27;20039;-60
2022/05/22 12:30:56;;;;;;;11.63;2.33;;;;;;;;;;5131312;27;20061;-60
2022/05/22 12:33:24;;;;;;;13.40;2.33;;;;;;;;;;5132071;28;20070;-60
2022/05/22 12:35:52;;;;;;;23.50;3.45;;;;;;;;;;5130939;27;20564;-60
2022/05/22 12:38:18;;;;;;;12.60;2.13;;;;;;;;;;5130772;27;20066;-60
2022/05/22 12:40:51;;;;;;;11.73;2.22;;;;;;;;;;5131193;28;20039;-60
2022/05/22 12:43:19;;;;;;;16.55;3.10;;;;;;;;;;5131173;27;20125;-60
2022/05/22 12:45:57;;;;;;;20.35;3.17;;;;;;;;;;5130959;27;20043;-60
2022/05/22 12:48:33;;;;;;;32.55;4.38;;;;;;;;;;5135297;27;20088;-60
2022/05/22 12:51:06;;;;;;;14.60;2.75;;;;;;;;;;5135437;27;20403;-60
2022/05/22 12:53:33;;;;;;;6.38;2.08;;;;;;;;;;5132715;27;20522;-60
2022/05/22 12:56:19;;;;;;;14.73;2.40;;;;;;;;;;5134620;27;20036;-61
2022/05/22 12:58:50;;;;;;;17.48;2.88;;;;;;;;;;5129554;27;20044;-60
2022/05/22 13:01:34;;;;;;;11.82;2.30;;;;;;;;;;5134499;27;20082;-60
2022/05/22 13:04:01;;;;;;;19.92;2.63;;;;;;;;;;5134858;27;20039;-60
2022/05/22 13:06:36;;;;;;;12.02;2.38;;;;;;;;;;5133840;27;20122;-60
2022/05/22 13:09:05;;;;;;;17.40;3.15;;;;;;;;;;5124175;27;20061;-60
2022/05/22 13:11:45;;;;;;;13.70;2.65;;;;;;;;;;5129283;27;20057;-60
2022/05/22 13:14:40;;;;;;;13.80;1.90;;;;;;;;;;5134618;27;20047;-59
2022/05/22 13:17:11;;;;;;;13.38;2.63;;;;;;;;;;5134066;27;20043;-60
2022/05/22 13:19:52;;;;;;;7.43;1.73;;;;;;;;;;5134558;27;20135;-60
2022/05/22 13:22:29;;;;;;;9.60;1.83;;;;;;;;;;5134382;27;20492;-60
2022/05/22 13:24:56;;;;;;;15.35;2.22;;;;;;;;;;5121003;27;20122;-60
2022/05/22 13:27:29;;;;;;;23.77;3.45;;;;;;;;;;5134612;27;20043;-60
2022/05/22 13:30:05;;;;;;;24.35;3.88;;;;;;;;;;5128643;27;20046;-60
2022/05/22 13:32:46;;;;;;;16.27;2.97;;;;;;;;;;5130192;27;20469;-60
2022/05/22 13:35:17;;;;;;;16.65;2.80;;;;;;;;;;5127260;27;20167;-60
2022/05/22 13:37:47;;;;;;;8.80;1.83;;;;;;;;;;5128469;27;20054;-60
2022/05/22 13:40:19;;;;;;;9.75;2.08;;;;;;;;;;5125275;27;20039;-60
2022/05/22 13:42:53;;;;;;;22.55;3.08;;;;;;;;;;5127721;27;20404;-60
2022/05/22 13:45:39;;;;;;;19.45;2.83;;;;;;;;;;5134602;27;20043;-60
2022/05/22 13:48:24;;;;;;;12.90;2.45;;;;;;;;;;5070833;28;20045;-60
2022/05/22 13:54:03;;;;;;;9.65;2.70;;;;;;;;;;5074390;28;20414;-60
2022/05/22 13:56:38;;;;;;;17.25;2.33;;;;;;;;;;5074514;28;20048;-61
2022/05/22 13:59:07;;;;;;;7.32;1.63;;;;;;;;;;5074230;28;20135;-60
2022/05/22 14:01:34;;;;;;;7.82;1.98;;;;;;;;;;5073350;28;20114;-60
2022/05/22 14:04:05;;;;;;;37.83;4.85;;;;;;;;;;5073926;28;20072;-60
2022/05/22 14:06:34;;;;;;;10.13;2.20;;;;;;;;;;5067517;28;20088;-60
2022/05/22 14:09:02;;;;;;;10.40;2.03;;;;;;;;;;5072225;28;20052;-61
2022/05/22 14:11:30;;;;;;;15.57;3.80;;;;;;;;;;5073928;28;20510;-60
2022/05/22 14:14:01;;;;;;;9.25;2.35;;;;;;;;;;5074364;28;20043;-61
2022/05/22 14:16:35;;;;;;;17.30;3.60;;;;;;;;;;5074082;28;20231;-61
2022/05/22 14:19:06;;;;;;;9.63;2.45;;;;;;;;;;5074227;28;20052;-60
2022/05/22 14:21:38;;;;;;;12.10;2.67;;;;;;;;;;5070293;28;20158;-60
2022/05/22 14:27:03;;;;;;;15.52;3.03;;;;;;;;;;5133106;27;20078;-60
2022/05/22 14:29:30;;;;;;;18.30;3.25;;;;;;;;;;5132682;27;20528;-60
2022/05/22 14:31:56;;;;;;;10.98;2.53;;;;;;;;;;5132440;27;20106;-60
2022/05/22 14:34:24;;;;;;;19.45;3.28;;;;;;;;;;5132765;27;20051;-61
2022/05/22 14:36:55;;;;;;;37.83;4.88;;;;;;;;;;5133068;27;20470;-61
2022/05/22 14:39:23;;;;;;;7.78;2.92;;;;;;;;;;5133808;27;20389;-61
2022/05/22 14:41:50;;;;;;;14.90;3.10;;;;;;;;;;5132916;27;20055;-60
2022/05/22 14:44:26;;;;;;;16.13;3.60;;;;;;;;;;5133168;27;20125;-61
2022/05/22 14:46:54;;;;;;;19.02;4.10;;;;;;;;;;5131981;27;20126;-60
2022/05/22 14:49:24;;;;;;;29.95;4.95;;;;;;;;;;5127573;27;20492;-61
2022/05/22 14:51:53;;;;;;;27.33;4.55;;;;;;;;;;5122467;27;20946;-61
2022/05/22 14:54:26;;;;;;;18.98;3.63;;;;;;;;;;5122732;27;20475;-61
2022/05/22 14:57:05;;;;;;;15.57;3.00;;;;;;;;;;5124905;27;20031;-60
2022/05/22 14:59:40;;;;;;;15.32;3.03;;;;;;;;;;5123326;27;20039;-61
2022/05/22 15:02:10;;;;;;;22.65;3.72;;;;;;;;;;5120791;27;20038;-61
2022/05/22 15:04:37;;;;;;;9.63;2.53;;;;;;;;;;5120884;27;20146;-61
2022/05/22 15:07:05;;;;;;;28.67;4.30;;;;;;;;;;5131583;27;20109;-60
2022/05/22 15:09:37;;;;;;;23.17;3.92;;;;;;;;;;5121180;27;20034;-60
2022/05/22 15:12:12;;;;;;;12.10;2.40;;;;;;;;;;5132541;27;20069;-60
2022/05/22 15:14:44;;;;;;;17.92;3.35;;;;;;;;;;5131715;27;20556;-61
2022/05/22 15:17:19;;;;;;;15.20;3.78;;;;;;;;;;5131164;27;20043;-61
2022/05/22 15:19:54;;;;;;;22.10;3.50;;;;;;;;;;5131598;27;20428;-60
2022/05/22 15:25:34;;;;;;;14.10;3.17;;;;;;;;;;5131495;27;20071;-60
2022/05/22 15:28:10;;;;;;;20.73;3.35;;;;;;;;;;5131895;27;20042;-60
2022/05/22 15:30:41;;;;;;;10.70;2.53;;;;;;;;;;5131411;27;20548;-60